createdAt,value
2019-06-01T00:02:05.000Z,5.8
2019-06-01T00:05:30.000Z,6
2019-06-01T00:08:59.000Z,6
2019-06-01T00:12:23.000Z,6
2019-06-01T00:15:51.000Z,6.6
2019-06-01T00:19:16.000Z,7
2019-06-01T00:22:45.000Z,5.4
2019-06-01T00:26:12.000Z,6.5
2019-06-01T00:29:42.000Z,5.5
2019-06-01T00:33:08.000Z,8.2
2019-06-01T00:36:33.000Z,5
2019-06-01T00:40:01.000Z,5.9
2019-06-01T00:43:27.000Z,8.3
2019-06-01T00:46:52.000Z,5.8
2019-06-01T00:50:21.000Z,6.5
2019-06-01T00:53:49.000Z,7.5
2019-06-01T00:57:21.000Z,6.6
2019-06-01T01:00:47.000Z,5.6
2019-06-01T01:04:20.000Z,5.5
2019-06-01T01:07:46.000Z,7.7
2019-06-01T01:11:20.000Z,5.7
2019-06-01T01:14:53.000Z,5.7
2019-06-01T01:18:32.000Z,5.5
2019-06-01T01:22:02.000Z,6.4
2019-06-01T01:25:33.000Z,5.9
2019-06-01T01:29:00.000Z,5.5
2019-06-01T01:32:31.000Z,7.2
2019-06-01T01:36:00.000Z,8.1
2019-06-01T01:39:34.000Z,6.4
2019-06-01T01:43:03.000Z,5.8
2019-06-01T01:46:31.000Z,6
2019-06-01T01:50:04.000Z,5.7
2019-06-01T01:53:34.000Z,6.8
2019-06-01T01:57:04.000Z,7.2
2019-06-01T02:00:42.000Z,6.1
2019-06-01T02:04:17.000Z,5.9
2019-06-01T02:07:46.000Z,7.5
2019-06-01T02:11:29.000Z,6.7
2019-06-01T02:15:02.000Z,8.7
2019-06-01T02:18:36.000Z,5.9
2019-06-01T02:22:22.000Z,5.2
2019-06-01T02:25:52.000Z,6.2
2019-06-01T02:29:32.000Z,7.4
2019-06-01T02:33:06.000Z,7.8
2019-06-01T02:36:50.000Z,7.6
2019-06-01T02:40:27.000Z,6.7
2019-06-01T02:44:09.000Z,5.7
2019-06-01T02:47:49.000Z,6.1
2019-06-01T02:51:34.000Z,8
2019-06-01T02:55:12.000Z,7.1
2019-06-01T02:58:58.000Z,6.5
2019-06-01T03:02:38.000Z,5.8
2019-06-01T03:06:17.000Z,9.2
2019-06-01T03:09:51.000Z,7.1
2019-06-01T03:13:33.000Z,6.1
2019-06-01T03:17:11.000Z,6.8
2019-06-01T03:22:10.000Z,7.4
2019-06-01T03:25:33.000Z,7.8
2019-06-01T03:28:58.000Z,7.2
2019-06-01T03:32:23.000Z,5.2
2019-06-01T03:35:55.000Z,6.1
2019-06-01T03:39:18.000Z,5.9
2019-06-01T03:42:41.000Z,5.2
2019-06-01T03:46:04.000Z,6.4
2019-06-01T03:49:28.000Z,6.2
2019-06-01T03:52:51.000Z,6.3
2019-06-01T03:56:14.000Z,5.8
2019-06-01T03:59:37.000Z,6.2
2019-06-01T04:03:04.000Z,7.2
2019-06-01T04:06:28.000Z,7.6
2019-06-01T04:09:52.000Z,6.6
2019-06-01T04:13:17.000Z,7.3
2019-06-01T04:16:40.000Z,8
2019-06-01T04:20:03.000Z,5.7
2019-06-01T04:23:29.000Z,5.7
2019-06-01T04:26:54.000Z,5.9
2019-06-01T04:30:19.000Z,6.7
2019-06-01T04:33:43.000Z,6
2019-06-01T04:37:07.000Z,6.8
2019-06-01T04:40:30.000Z,6.5
2019-06-01T04:43:56.000Z,11.3
2019-06-01T04:47:22.000Z,8.5
2019-06-01T04:50:47.000Z,7.2
2019-06-01T04:54:12.000Z,7.5
2019-06-01T04:57:38.000Z,7.8
2019-06-01T05:01:08.000Z,8.3
2019-06-01T05:04:33.000Z,6.9
2019-06-01T05:08:02.000Z,9.6
2019-06-01T05:11:34.000Z,9.3
2019-06-01T05:15:00.000Z,11.1
2019-06-01T05:18:27.000Z,7.4
2019-06-01T05:21:54.000Z,13.9
2019-06-01T05:25:19.000Z,12.8
2019-06-01T05:28:46.000Z,10.6
2019-06-01T05:32:17.000Z,10.6
2019-06-01T05:35:47.000Z,12.7
2019-06-01T05:39:17.000Z,12.7
2019-06-01T05:42:44.000Z,13.4
2019-06-01T05:46:14.000Z,14.4
2019-06-01T05:49:45.000Z,10.2
2019-06-01T05:53:18.000Z,12.2
2019-06-01T05:56:48.000Z,9.1
2019-06-01T06:00:17.000Z,7.9
2019-06-01T06:03:47.000Z,7.7
2019-06-01T06:07:11.000Z,8.9
2019-06-01T06:10:41.000Z,8.7
2019-06-01T06:14:17.000Z,11.1
2019-06-01T06:17:47.000Z,8.2
2019-06-01T06:21:27.000Z,8.4
2019-06-01T06:24:53.000Z,9.6
2019-06-01T06:28:23.000Z,10.7
2019-06-01T06:31:57.000Z,8
2019-06-01T06:35:36.000Z,7.5
2019-06-01T06:39:09.000Z,10.3
2019-06-01T06:42:41.000Z,7.1
2019-06-01T06:46:08.000Z,13.5
2019-06-01T06:49:48.000Z,12.9
2019-06-01T06:53:26.000Z,16
2019-06-01T06:57:04.000Z,25.4
2019-06-01T07:00:41.000Z,14.8
2019-06-01T07:04:20.000Z,21.9
2019-06-01T07:07:52.000Z,15.4
2019-06-01T07:11:29.000Z,22.6
2019-06-01T07:15:11.000Z,22.2
2019-06-01T07:18:49.000Z,23.9
2019-06-01T07:22:22.000Z,23.6
2019-06-01T07:26:02.000Z,19.8
2019-06-01T07:29:47.000Z,14.1
2019-06-01T07:33:29.000Z,11.8
2019-06-01T07:37:05.000Z,11.9
2019-06-01T07:40:51.000Z,8.8
2019-06-01T07:44:36.000Z,12.3
2019-06-01T07:48:13.000Z,7.7
2019-06-01T07:51:55.000Z,9.1
2019-06-01T07:55:50.000Z,8.1
2019-06-01T07:59:33.000Z,7.2
2019-06-01T08:03:15.000Z,7
2019-06-01T08:07:06.000Z,8
2019-06-01T08:12:05.000Z,6.8
2019-06-01T08:15:29.000Z,6.4
2019-06-01T08:18:52.000Z,7.6
2019-06-01T08:22:15.000Z,7.4
2019-06-01T08:25:39.000Z,7.6
2019-06-01T08:29:03.000Z,6.4
2019-06-01T08:32:26.000Z,5.9
2019-06-01T08:35:49.000Z,8.1
2019-06-01T08:39:12.000Z,5.8
2019-06-01T08:42:35.000Z,8.6
2019-06-01T08:45:59.000Z,5.1
2019-06-01T08:49:28.000Z,5.5
2019-06-01T08:52:53.000Z,5.2
2019-06-01T08:56:17.000Z,5
2019-06-01T08:59:41.000Z,7.7
2019-06-01T09:03:06.000Z,4.4
2019-06-01T09:06:29.000Z,5.4
2019-06-01T09:09:54.000Z,5.3
2019-06-01T09:13:20.000Z,8.4
2019-06-01T09:16:45.000Z,5.5
2019-06-01T09:20:11.000Z,4.9
2019-06-01T09:23:36.000Z,6.2
2019-06-01T09:26:59.000Z,5.2
2019-06-01T09:30:23.000Z,5.8
2019-06-01T09:33:48.000Z,4.4
2019-06-01T09:37:11.000Z,5
2019-06-01T09:40:36.000Z,4.1
2019-06-01T09:44:01.000Z,4.3
2019-06-01T09:47:28.000Z,4.9
2019-06-01T09:50:54.000Z,3.9
2019-06-01T09:54:20.000Z,4.1
2019-06-01T09:57:46.000Z,4.4
2019-06-01T10:01:11.000Z,4.8
2019-06-01T10:04:35.000Z,3.2
2019-06-01T10:08:01.000Z,3.1
2019-06-01T10:11:30.000Z,3.3
2019-06-01T10:14:59.000Z,3
2019-06-01T10:18:25.000Z,3.1
2019-06-01T10:21:55.000Z,3.1
2019-06-01T10:25:21.000Z,4.4
2019-06-01T10:28:52.000Z,2.7
2019-06-01T10:32:18.000Z,3.1
2019-06-01T10:35:48.000Z,2.8
2019-06-01T10:39:17.000Z,3.4
2019-06-01T10:42:44.000Z,3.3
2019-06-01T10:46:14.000Z,2.9
2019-06-01T10:49:38.000Z,2.7
2019-06-01T10:53:09.000Z,2.8
2019-06-01T10:56:42.000Z,2.5
2019-06-01T11:00:21.000Z,3.3
2019-06-01T11:04:09.000Z,3
2019-06-01T11:07:35.000Z,3.7
2019-06-01T11:11:07.000Z,2.6
2019-06-01T11:14:37.000Z,2.8
2019-06-01T11:18:08.000Z,2.7
2019-06-01T11:21:35.000Z,2.3
2019-06-01T11:25:03.000Z,3.1
2019-06-01T11:28:41.000Z,3.1
2019-06-01T11:32:15.000Z,4.4
2019-06-01T11:35:55.000Z,3.3
2019-06-01T11:39:36.000Z,3
2019-06-01T11:43:17.000Z,2.5
2019-06-01T11:46:47.000Z,4.1
2019-06-01T11:50:39.000Z,3.1
2019-06-01T11:54:22.000Z,3.2
2019-06-01T11:58:05.000Z,2.6
2019-06-01T12:01:43.000Z,3.6
2019-06-01T12:05:23.000Z,3.4
2019-06-01T12:09:24.000Z,3.2
2019-06-01T12:13:08.000Z,2.7
2019-06-01T12:16:54.000Z,3.2
2019-06-01T12:20:31.000Z,3.2
2019-06-01T12:26:36.000Z,3.4
2019-06-01T12:30:20.000Z,3
2019-06-01T12:33:53.000Z,3.4
2019-06-01T12:37:32.000Z,2.9
2019-06-01T12:41:31.000Z,2.8
2019-06-01T12:45:14.000Z,2.9
2019-06-01T12:48:48.000Z,2.8
2019-06-01T12:52:26.000Z,2.7
2019-06-01T12:56:07.000Z,4.4
2019-06-01T13:00:58.000Z,2.9
2019-06-01T13:04:22.000Z,2.7
2019-06-01T13:07:45.000Z,3.1
2019-06-01T13:11:18.000Z,2.7
2019-06-01T13:14:41.000Z,2.7
2019-06-01T13:18:04.000Z,3.4
2019-06-01T13:21:28.000Z,3
2019-06-01T13:24:53.000Z,2.7
2019-06-01T13:28:16.000Z,3.2
2019-06-01T13:31:54.000Z,2.6
2019-06-01T13:35:17.000Z,2.9
2019-06-01T13:38:40.000Z,2.8
2019-06-01T13:42:04.000Z,2.8
2019-06-01T13:45:27.000Z,2.8
2019-06-01T13:48:49.000Z,2.6
2019-06-01T13:52:15.000Z,2.7
2019-06-01T13:55:41.000Z,5.8
2019-06-01T13:59:08.000Z,2.8
2019-06-01T14:02:32.000Z,3.2
2019-06-01T14:05:56.000Z,2.6
2019-06-01T14:09:23.000Z,2.8
2019-06-01T14:12:49.000Z,2.6
2019-06-01T14:16:18.000Z,2.3
2019-06-01T14:19:44.000Z,2.9
2019-06-01T14:23:08.000Z,2.3
2019-06-01T14:30:24.000Z,2.6
2019-06-01T14:33:50.000Z,2.1
2019-06-01T14:37:13.000Z,2.3
2019-06-01T14:40:42.000Z,2.2
2019-06-01T14:44:08.000Z,2.8
2019-06-01T14:47:31.000Z,2.3
2019-06-01T14:50:56.000Z,2.6
2019-06-01T14:54:20.000Z,2.1
2019-06-01T14:57:44.000Z,2.7
2019-06-01T15:01:07.000Z,2.9
2019-06-01T15:04:49.000Z,2.2
2019-06-01T15:08:14.000Z,2.3
2019-06-01T15:11:37.000Z,2.5
2019-06-01T15:15:00.000Z,2.2
2019-06-01T15:18:23.000Z,2.8
2019-06-01T15:21:47.000Z,1.9
2019-06-01T15:25:12.000Z,2.9
2019-06-01T15:28:37.000Z,1.9
2019-06-01T15:31:59.000Z,2.3
2019-06-01T15:35:22.000Z,2.1
2019-06-01T15:38:47.000Z,3.6
2019-06-01T15:42:12.000Z,3.2
2019-06-01T15:45:36.000Z,2.7
2019-06-01T15:48:59.000Z,2
2019-06-01T15:52:32.000Z,2.2
2019-06-01T15:55:56.000Z,2.2
2019-06-01T15:59:25.000Z,3
2019-06-01T16:02:50.000Z,2.3
2019-06-01T16:06:16.000Z,2.5
2019-06-01T16:09:40.000Z,3.7
2019-06-01T16:13:07.000Z,2.4
2019-06-01T16:16:34.000Z,2.1
2019-06-01T16:20:01.000Z,2.5
2019-06-01T16:23:28.000Z,2.9
2019-06-01T16:30:26.000Z,2.6
2019-06-01T16:33:52.000Z,3
2019-06-01T16:37:16.000Z,2.6
2019-06-01T16:40:40.000Z,2.7
2019-06-01T16:44:08.000Z,5.8
2019-06-01T16:47:36.000Z,3.5
2019-06-01T16:50:59.000Z,3.2
2019-06-01T16:54:22.000Z,3
2019-06-01T16:57:47.000Z,3.2
2019-06-01T17:01:11.000Z,5.8
2019-06-01T17:04:34.000Z,15.6
2019-06-01T17:08:01.000Z,4.1
2019-06-01T17:11:26.000Z,11.7
2019-06-01T17:14:50.000Z,4
2019-06-01T17:18:15.000Z,4.1
2019-06-01T17:21:39.000Z,2.9
2019-06-01T17:25:20.000Z,3
2019-06-01T17:28:45.000Z,2.8
2019-06-01T17:32:16.000Z,3
2019-06-01T17:35:42.000Z,3
2019-06-01T17:39:06.000Z,3.9
2019-06-01T17:42:38.000Z,3.8
2019-06-01T17:46:02.000Z,2.9
2019-06-01T17:49:29.000Z,3.8
2019-06-01T17:52:54.000Z,3.2
2019-06-01T17:56:19.000Z,3.1
2019-06-01T17:59:45.000Z,3.3
2019-06-01T18:03:13.000Z,7.8
2019-06-01T18:06:39.000Z,3.5
2019-06-01T18:10:06.000Z,5.1
2019-06-01T18:13:33.000Z,4.8
2019-06-01T18:17:01.000Z,5.5
2019-06-01T18:20:26.000Z,3.9
2019-06-01T18:23:52.000Z,3.8
2019-06-01T18:27:25.000Z,4.2
2019-06-01T18:30:52.000Z,3.6
2019-06-01T18:34:18.000Z,3.9
2019-06-01T18:37:48.000Z,3.9
2019-06-01T18:41:15.000Z,4.3
2019-06-01T18:44:46.000Z,3.8
2019-06-01T18:48:11.000Z,4
2019-06-01T18:51:36.000Z,3.9
2019-06-01T18:55:08.000Z,4.1
2019-06-01T18:58:45.000Z,5.4
2019-06-01T19:02:14.000Z,3.6
2019-06-01T19:05:43.000Z,3.8
2019-06-01T19:09:12.000Z,4.4
2019-06-01T19:12:40.000Z,4
2019-06-01T19:16:10.000Z,4.8
2019-06-01T19:19:48.000Z,4.8
2019-06-01T19:23:21.000Z,4.3
2019-06-01T19:26:49.000Z,4.3
2019-06-01T19:30:25.000Z,5.2
2019-06-01T19:33:57.000Z,4.7
2019-06-01T19:37:35.000Z,4.8
2019-06-01T19:41:07.000Z,4.7
2019-06-01T19:44:41.000Z,4.2
2019-06-01T19:48:14.000Z,6.5
2019-06-01T19:51:42.000Z,6.5
2019-06-01T19:55:16.000Z,6
2019-06-01T19:58:48.000Z,4.4
2019-06-01T20:02:25.000Z,4.5
2019-06-01T20:05:59.000Z,7.2
2019-06-01T20:09:36.000Z,4.8
2019-06-01T20:13:16.000Z,4.9
2019-06-01T20:16:51.000Z,5.4
2019-06-01T20:20:26.000Z,5.4
2019-06-01T20:24:05.000Z,6
2019-06-01T20:27:47.000Z,6.5
2019-06-01T20:31:29.000Z,5.8
2019-06-01T20:35:10.000Z,5
2019-06-01T20:38:51.000Z,6.8
2019-06-01T20:42:38.000Z,5
2019-06-01T20:46:22.000Z,7.5
2019-06-01T20:50:01.000Z,6.2
2019-06-01T20:53:41.000Z,6.1
2019-06-01T20:57:20.000Z,5.3
2019-06-01T21:00:59.000Z,5.4
2019-06-01T21:04:33.000Z,5.2
2019-06-01T21:08:11.000Z,6.2
2019-06-01T21:11:49.000Z,5.5
2019-06-01T21:15:28.000Z,5.2
2019-06-01T21:20:24.000Z,5.1
2019-06-01T21:23:47.000Z,5.6
2019-06-01T21:27:15.000Z,5.2
2019-06-01T21:30:38.000Z,5.4
2019-06-01T21:34:01.000Z,5.9
2019-06-01T21:37:26.000Z,5.5
2019-06-01T21:40:51.000Z,5.9
2019-06-01T21:44:15.000Z,5.6
2019-06-01T21:47:39.000Z,5.3
2019-06-01T21:51:03.000Z,7.5
2019-06-01T21:54:27.000Z,7.1
2019-06-01T21:57:50.000Z,5.9
2019-06-01T22:01:16.000Z,5.8
2019-06-01T22:04:40.000Z,7.2
2019-06-01T22:08:04.000Z,6
2019-06-01T22:11:31.000Z,5.9
2019-06-01T22:17:17.000Z,6.3
2019-06-01T22:20:43.000Z,5.7
2019-06-01T22:24:08.000Z,5.9
2019-06-01T22:27:36.000Z,6.2
2019-06-01T22:31:00.000Z,6
2019-06-01T22:34:26.000Z,7.5
2019-06-01T22:37:49.000Z,6.4
2019-06-01T22:41:15.000Z,6.1
2019-06-01T22:44:43.000Z,6
2019-06-01T22:48:09.000Z,5.8
2019-06-01T22:51:34.000Z,8.7
2019-06-01T22:55:00.000Z,6.9
2019-06-01T22:58:28.000Z,6
2019-06-01T23:01:56.000Z,9.4
2019-06-01T23:05:24.000Z,7
2019-06-01T23:08:54.000Z,7.7
2019-06-01T23:12:28.000Z,7.2
2019-06-01T23:15:58.000Z,6.4
2019-06-01T23:19:25.000Z,7
2019-06-01T23:22:56.000Z,7.6
2019-06-01T23:26:23.000Z,6.7
2019-06-01T23:29:53.000Z,6.9
2019-06-01T23:33:22.000Z,7.7
2019-06-01T23:36:53.000Z,6.8
2019-06-01T23:40:22.000Z,7
2019-06-01T23:43:56.000Z,7.1
2019-06-01T23:47:40.000Z,7.3
2019-06-01T23:51:20.000Z,7.5
2019-06-01T23:54:48.000Z,7.7
2019-06-01T23:58:30.000Z,7.9
